createdAt,value
2018-03-01T00:00:37.815Z,-10.00
2018-03-01T00:03:05.362Z,-10.00
2018-03-01T00:05:33.681Z,-9.90
2018-03-01T00:08:01.216Z,-9.90
2018-03-01T00:10:28.775Z,-9.90
2018-03-01T00:12:56.295Z,-9.90
2018-03-01T00:15:23.829Z,-9.80
2018-03-01T00:17:51.369Z,-9.80
2018-03-01T00:20:18.932Z,-9.80
2018-03-01T00:22:46.497Z,-9.90
2018-03-01T00:25:14.028Z,-10.00
2018-03-01T00:27:41.578Z,-10.10
2018-03-01T00:30:09.893Z,-10.30
2018-03-01T00:32:37.437Z,-10.40
2018-03-01T00:35:04.989Z,-10.40
2018-03-01T00:37:32.579Z,-10.40
2018-03-01T00:40:00.867Z,-10.40
2018-03-01T00:42:28.425Z,-10.50
2018-03-01T00:44:55.962Z,-10.50
2018-03-01T00:47:23.525Z,-10.50
2018-03-01T00:49:51.091Z,-10.50
2018-03-01T00:52:18.652Z,-10.40
2018-03-01T00:54:46.194Z,-10.40
2018-03-01T00:57:13.736Z,-10.40
2018-03-01T00:59:41.348Z,-10.50
2018-03-01T01:02:08.880Z,-10.60
2018-03-01T01:04:36.415Z,-10.60
2018-03-01T01:07:03.964Z,-10.60
2018-03-01T01:09:32.281Z,-10.60
2018-03-01T01:11:59.828Z,-10.60
2018-03-01T01:14:27.358Z,-10.60
2018-03-01T01:16:55.681Z,-10.50
2018-03-01T01:19:23.224Z,-10.50
2018-03-01T01:21:50.789Z,-10.40
2018-03-01T01:24:18.370Z,-10.40
2018-03-01T01:26:45.918Z,-10.50
2018-03-01T01:29:13.453Z,-10.50
2018-03-01T01:31:41.009Z,-10.50
2018-03-01T01:34:08.558Z,-10.60
2018-03-01T01:36:36.086Z,-10.60
2018-03-01T01:39:03.690Z,-10.60
2018-03-01T01:41:31.238Z,-10.60
2018-03-01T01:43:58.796Z,-10.60
2018-03-01T01:46:26.330Z,-10.60
2018-03-01T01:48:54.660Z,-10.60
2018-03-01T01:51:22.218Z,-10.60
2018-03-01T01:53:49.767Z,-10.60
2018-03-01T01:56:17.323Z,-10.60
2018-03-01T01:58:44.873Z,-10.60
2018-03-01T02:01:12.427Z,-10.60
2018-03-01T02:03:39.982Z,-10.60
2018-03-01T02:06:07.563Z,-10.60
2018-03-01T02:08:35.113Z,-10.50
2018-03-01T02:11:02.676Z,-10.50
2018-03-01T02:13:30.219Z,-10.60
2018-03-01T02:15:58.563Z,-10.70
2018-03-01T02:18:26.100Z,-10.70
2018-03-01T02:20:53.658Z,-10.80
2018-03-01T02:23:21.238Z,-10.70
2018-03-01T02:25:49.824Z,-10.70
2018-03-01T02:28:17.388Z,-10.70
2018-03-01T02:30:44.914Z,-10.60
2018-03-01T02:33:12.465Z,-10.50
2018-03-01T02:35:40.024Z,-10.60
2018-03-01T02:38:07.586Z,-10.60
2018-03-01T02:40:35.153Z,-10.60
2018-03-01T02:43:02.709Z,-10.60
2018-03-01T02:45:30.284Z,-10.60
2018-03-01T02:47:57.849Z,-10.60
2018-03-01T02:50:25.441Z,-10.50
2018-03-01T02:52:53.761Z,-10.50
2018-03-01T02:55:21.321Z,-10.50
2018-03-01T02:57:48.864Z,-10.50
2018-03-01T03:00:16.432Z,-10.50
2018-03-01T03:02:44.002Z,-10.60
2018-03-01T03:05:11.601Z,-10.60
2018-03-01T03:07:39.137Z,-10.60
2018-03-01T03:10:07.451Z,-10.60
2018-03-01T03:12:35.767Z,-10.60
2018-03-01T03:15:03.342Z,-10.60
2018-03-01T03:17:30.907Z,-10.60
2018-03-01T03:19:58.472Z,-10.60
2018-03-01T03:22:26.033Z,-10.60
2018-03-01T03:24:53.570Z,-10.50
2018-03-01T03:27:21.166Z,-10.60
2018-03-01T03:29:48.694Z,-10.60
2018-03-01T03:32:16.228Z,-10.60
2018-03-01T03:34:43.792Z,-10.60
2018-03-01T03:37:11.326Z,-10.60
2018-03-01T03:39:39.636Z,-10.60
2018-03-01T03:42:07.154Z,-10.60
2018-03-01T03:44:34.694Z,-10.60
2018-03-01T03:47:02.241Z,-10.60
2018-03-01T03:49:29.811Z,-10.60
2018-03-01T03:51:57.357Z,-10.70
2018-03-01T03:54:24.919Z,-10.70
2018-03-01T03:56:52.483Z,-10.70
2018-03-01T03:59:20.034Z,-10.60
2018-03-01T04:01:47.590Z,-10.50
2018-03-01T04:04:15.145Z,-10.50
2018-03-01T04:06:42.720Z,-10.50
2018-03-01T04:09:11.029Z,-10.50
2018-03-01T04:11:39.359Z,-10.50
2018-03-01T04:14:06.911Z,-10.50
2018-03-01T04:16:34.475Z,-10.50
2018-03-01T04:19:02.026Z,-10.50
2018-03-01T04:21:29.575Z,-10.50
2018-03-01T04:23:57.119Z,-10.40
2018-03-01T04:26:25.441Z,-10.40
2018-03-01T04:28:53.003Z,-10.40
2018-03-01T04:31:20.547Z,-10.40
2018-03-01T04:33:48.109Z,-10.40
2018-03-01T04:36:15.671Z,-10.40
2018-03-01T04:38:43.236Z,-10.40
2018-03-01T04:41:10.754Z,-10.40
2018-03-01T04:43:38.283Z,-10.40
2018-03-01T04:46:05.938Z,-10.50
2018-03-01T04:48:33.488Z,-10.50
2018-03-01T04:51:01.062Z,-10.40
2018-03-01T04:53:28.625Z,-10.40
2018-03-01T04:55:56.173Z,-10.30
2018-03-01T04:58:23.709Z,-10.30
2018-03-01T05:00:51.260Z,-10.40
2018-03-01T05:03:18.779Z,-10.40
2018-03-01T05:05:47.103Z,-10.50
2018-03-01T05:08:14.661Z,-10.50
2018-03-01T05:10:42.202Z,-10.50
2018-03-01T05:13:09.775Z,-10.50
2018-03-01T05:15:38.098Z,-10.50
2018-03-01T05:18:05.660Z,-10.60
2018-03-01T05:20:33.960Z,-10.50
2018-03-01T05:23:01.537Z,-10.60
2018-03-01T05:25:29.083Z,-10.50
2018-03-01T05:27:56.653Z,-10.60
2018-03-01T05:30:24.202Z,-10.50
2018-03-01T05:32:51.768Z,-10.50
2018-03-01T05:35:19.977Z,-10.60
2018-03-01T05:37:48.327Z,-10.60
2018-03-01T05:40:15.883Z,-10.60
2018-03-01T05:42:43.423Z,-10.60
2018-03-01T05:45:10.990Z,-10.60
2018-03-01T05:47:38.548Z,-10.50
2018-03-01T05:50:06.089Z,-10.50
2018-03-01T05:52:34.395Z,-10.60
2018-03-01T05:55:02.013Z,-10.60
2018-03-01T05:57:29.514Z,-10.50
2018-03-01T05:59:57.056Z,-10.50
2018-03-01T06:02:25.372Z,-10.60
2018-03-01T06:04:52.908Z,-10.60
2018-03-01T06:07:20.466Z,-10.60
2018-03-01T06:09:48.018Z,-10.50
2018-03-01T06:12:15.580Z,-10.50
2018-03-01T06:14:43.125Z,-10.50
2018-03-01T06:17:11.467Z,-10.50
2018-03-01T06:19:39.034Z,-10.50
2018-03-01T06:22:06.598Z,-10.60
2018-03-01T06:24:34.165Z,-10.60
2018-03-01T06:27:01.756Z,-10.60
2018-03-01T06:29:29.323Z,-10.50
2018-03-01T06:31:56.878Z,-10.50
2018-03-01T06:34:24.436Z,-10.40
2018-03-01T06:36:51.992Z,-10.50
2018-03-01T06:39:19.569Z,-10.50
2018-03-01T06:41:47.121Z,-10.50
2018-03-01T06:44:14.718Z,-10.50
2018-03-01T06:46:42.262Z,-10.50
2018-03-01T06:49:09.867Z,-10.40
2018-03-01T06:51:37.408Z,-10.30
2018-03-01T06:54:04.973Z,-10.30
2018-03-01T06:56:32.553Z,-10.10
2018-03-01T06:59:00.896Z,-10.00
2018-03-01T07:01:28.448Z,-10.00
2018-03-01T07:03:55.999Z,-9.80
2018-03-01T07:06:23.576Z,-9.60
2018-03-01T07:08:51.132Z,-9.50
2018-03-01T07:11:18.700Z,-9.50
2018-03-01T07:13:46.261Z,-9.60
2018-03-01T07:16:13.802Z,-9.80
2018-03-01T07:18:41.365Z,-9.80
2018-03-01T07:21:08.896Z,-9.80
2018-03-01T07:23:36.455Z,-9.80
2018-03-01T07:26:03.983Z,-9.70
2018-03-01T07:28:32.321Z,-9.70
2018-03-01T07:30:59.845Z,-9.70
2018-03-01T07:33:27.406Z,-9.80
2018-03-01T07:35:54.956Z,-9.80
2018-03-01T07:38:22.505Z,-9.80
2018-03-01T07:40:50.803Z,-9.70
2018-03-01T07:43:19.481Z,-9.80
2018-03-01T07:45:47.219Z,-9.70
2018-03-01T07:48:14.806Z,-9.70
2018-03-01T07:50:42.346Z,-9.70
2018-03-01T07:53:10.665Z,-9.60
2018-03-01T07:55:38.234Z,-9.60
2018-03-01T07:58:05.783Z,-9.50
2018-03-01T08:00:33.311Z,-9.50
2018-03-01T08:03:01.634Z,-9.40
2018-03-01T08:05:29.153Z,-9.40
2018-03-01T08:07:56.920Z,-9.30
2018-03-01T08:10:24.463Z,-9.30
2018-03-01T08:12:52.787Z,-9.20
2018-03-01T08:15:20.322Z,-9.20
2018-03-01T08:17:47.876Z,-9.20
2018-03-01T08:20:15.428Z,-9.10
2018-03-01T08:22:42.965Z,-9.00
2018-03-01T08:25:11.290Z,-8.90
2018-03-01T08:27:38.815Z,-8.90
2018-03-01T08:30:07.135Z,-8.70
2018-03-01T08:32:34.693Z,-8.80
2018-03-01T08:35:02.256Z,-8.70
2018-03-01T08:37:29.818Z,-8.70
2018-03-01T08:39:57.391Z,-8.70
2018-03-01T08:42:24.950Z,-8.70
2018-03-01T08:44:52.514Z,-8.60
2018-03-01T08:47:20.053Z,-8.60
2018-03-01T08:49:47.592Z,-8.60
2018-03-01T08:52:15.147Z,-8.60
2018-03-01T08:54:42.675Z,-8.50
2018-03-01T08:57:11.001Z,-8.40
2018-03-01T08:59:38.545Z,-8.40
2018-03-01T09:02:06.396Z,-8.40
2018-03-01T09:04:33.940Z,-8.40
2018-03-01T09:07:02.277Z,-8.30
2018-03-01T09:09:29.856Z,-8.30
2018-03-01T09:11:57.381Z,-8.30
2018-03-01T09:14:24.961Z,-8.10
2018-03-01T09:16:52.504Z,-8.10
2018-03-01T09:19:20.041Z,-8.00
2018-03-01T09:21:47.600Z,-7.80
2018-03-01T09:24:15.172Z,-7.60
2018-03-01T09:26:42.705Z,-7.50
2018-03-01T09:29:11.005Z,-7.20
2018-03-01T09:31:38.526Z,-7.20
2018-03-01T09:34:06.858Z,-7.10
2018-03-01T09:36:34.408Z,-7.10
2018-03-01T09:39:01.931Z,-7.10
2018-03-01T09:41:30.247Z,-7.30
2018-03-01T09:43:57.761Z,-7.20
2018-03-01T09:46:26.067Z,-7.50
2018-03-01T09:48:53.647Z,-7.60
2018-03-01T09:51:21.208Z,-7.60
2018-03-01T09:53:48.741Z,-7.50
2018-03-01T09:56:16.333Z,-7.50
2018-03-01T09:58:43.887Z,-7.40
2018-03-01T10:01:11.430Z,-7.40
2018-03-01T10:03:39.003Z,-7.40
2018-03-01T10:06:06.572Z,-7.30
2018-03-01T10:08:34.132Z,-7.40
2018-03-01T10:11:01.650Z,-7.30
2018-03-01T10:13:29.199Z,-7.30
2018-03-01T10:15:56.758Z,-7.20
2018-03-01T10:18:25.057Z,-7.20
2018-03-01T10:20:52.578Z,-7.20
2018-03-01T10:23:21.276Z,-7.00
2018-03-01T10:25:48.859Z,-7.10
2018-03-01T10:28:16.391Z,-7.10
2018-03-01T10:30:44.709Z,-7.10
2018-03-01T10:33:12.246Z,-7.10
2018-03-01T10:35:39.797Z,-7.10
2018-03-01T10:38:08.093Z,-7.00
2018-03-01T10:40:35.652Z,-7.00
2018-03-01T10:43:03.193Z,-7.00
2018-03-01T10:45:30.765Z,-7.10
2018-03-01T10:47:58.289Z,-7.10
2018-03-01T10:50:25.820Z,-7.00
2018-03-01T10:52:53.377Z,-6.90
2018-03-01T10:55:20.924Z,-6.80
2018-03-01T10:57:49.255Z,-6.70
2018-03-01T11:00:23.171Z,-6.60
2018-03-01T11:02:51.514Z,-6.60
2018-03-01T11:05:19.067Z,-6.60
2018-03-01T11:07:46.622Z,-6.60
2018-03-01T11:10:14.175Z,-6.60
2018-03-01T11:12:41.756Z,-6.60
2018-03-01T11:15:09.294Z,-6.60
2018-03-01T11:17:36.815Z,-6.70
2018-03-01T11:20:04.411Z,-6.80
2018-03-01T11:22:31.952Z,-6.90
2018-03-01T11:24:59.495Z,-6.90
2018-03-01T11:27:27.028Z,-6.90
2018-03-01T11:29:55.368Z,-6.70
2018-03-01T11:32:22.933Z,-6.70
2018-03-01T11:34:50.512Z,-6.60
2018-03-01T11:37:18.080Z,-6.60
2018-03-01T11:39:46.390Z,-6.50
2018-03-01T11:42:13.933Z,-6.50
2018-03-01T11:44:42.235Z,-6.40
2018-03-01T11:47:09.792Z,-6.40
2018-03-01T11:49:37.799Z,-6.50
2018-03-01T11:52:05.356Z,-6.50
2018-03-01T11:54:32.905Z,-6.40
2018-03-01T11:57:00.486Z,-6.30
2018-03-01T11:59:28.013Z,-6.20
2018-03-01T12:01:55.570Z,-6.20
2018-03-01T12:04:23.095Z,-6.30
2018-03-01T12:06:51.409Z,-6.30
2018-03-01T12:09:18.944Z,-6.30
2018-03-01T12:11:46.508Z,-6.20
2018-03-01T12:14:14.063Z,-6.30
2018-03-01T12:16:41.604Z,-6.20
2018-03-01T12:19:09.914Z,-6.10
2018-03-01T12:21:37.436Z,-6.20
2018-03-01T12:24:05.753Z,-6.10
2018-03-01T12:26:33.272Z,-6.10
2018-03-01T12:29:01.589Z,-6.00
2018-03-01T12:31:29.145Z,-6.00
2018-03-01T12:33:56.677Z,-5.80
2018-03-01T12:36:25.009Z,-5.60
2018-03-01T12:38:52.529Z,-5.60
2018-03-01T12:41:20.070Z,-5.60
2018-03-01T12:43:48.387Z,-5.70
2018-03-01T12:46:15.935Z,-5.70
2018-03-01T12:48:43.487Z,-5.70
2018-03-01T12:51:11.060Z,-5.70
2018-03-01T12:53:38.588Z,-5.70
2018-03-01T12:56:06.152Z,-5.70
2018-03-01T12:58:33.724Z,-5.60
2018-03-01T13:01:01.267Z,-5.60
2018-03-01T13:03:28.836Z,-5.60
2018-03-01T13:05:56.364Z,-5.60
2018-03-01T13:08:24.704Z,-5.50
2018-03-01T13:10:52.245Z,-5.50
2018-03-01T13:13:19.830Z,-5.40
2018-03-01T13:15:48.140Z,-5.40
2018-03-01T13:18:15.690Z,-5.40
2018-03-01T13:20:43.270Z,-5.40
2018-03-01T13:23:11.568Z,-5.50
2018-03-01T13:25:39.134Z,-5.50
2018-03-01T13:28:06.665Z,-5.60
2018-03-01T13:30:44.914Z,-5.60
2018-03-01T13:33:18.137Z,-5.60
2018-03-01T13:35:45.686Z,-5.70
2018-03-01T13:38:13.224Z,-5.70
2018-03-01T13:40:40.783Z,-5.60
2018-03-01T13:43:08.323Z,-5.60
2018-03-01T13:45:38.574Z,-5.50
2018-03-01T13:48:06.117Z,-5.50
2018-03-01T13:50:33.666Z,-5.50
2018-03-01T13:53:01.216Z,-5.40
2018-03-01T13:55:28.743Z,-5.40
2018-03-01T13:57:56.286Z,-5.30
2018-03-01T14:00:23.799Z,-5.30
2018-03-01T14:02:51.386Z,-5.30
2018-03-01T14:05:18.929Z,-5.20
2018-03-01T14:08:01.377Z,-5.10
2018-03-01T14:10:28.906Z,-5.00
2018-03-01T14:16:03.080Z,-5.20
2018-03-01T14:18:36.456Z,-5.20
2018-03-01T14:24:11.336Z,-5.20
2018-03-01T14:29:52.878Z,-4.90
2018-03-01T14:32:20.425Z,-4.80
2018-03-01T14:34:48.721Z,-4.60
2018-03-01T14:37:16.296Z,-4.60
2018-03-01T14:39:43.842Z,-4.50
2018-03-01T14:42:11.400Z,-4.60
2018-03-01T14:44:38.920Z,-4.60
2018-03-01T14:47:06.462Z,-4.50
2018-03-01T14:49:34.006Z,-4.50
2018-03-01T14:52:01.580Z,-4.50
2018-03-01T14:54:29.119Z,-4.50
2018-03-01T14:56:56.665Z,-4.50
2018-03-01T14:59:24.236Z,-4.50
2018-03-01T15:01:51.788Z,-4.50
2018-03-01T15:04:19.360Z,-4.50
2018-03-01T15:06:46.895Z,-4.40
2018-03-01T15:09:14.455Z,-4.40
2018-03-01T15:11:42.007Z,-4.40
2018-03-01T15:14:09.555Z,-4.40
2018-03-01T15:16:37.100Z,-4.40
2018-03-01T15:19:05.432Z,-4.30
2018-03-01T15:21:32.958Z,-4.30
2018-03-01T15:24:00.503Z,-4.20
2018-03-01T15:26:28.082Z,-4.20
2018-03-01T15:28:55.601Z,-4.40
2018-03-01T15:31:23.135Z,-4.30
2018-03-01T15:33:50.688Z,-4.20
2018-03-01T15:36:18.283Z,-4.20
2018-03-01T15:38:46.596Z,-4.20
2018-03-01T15:41:14.147Z,-4.30
2018-03-01T15:43:41.673Z,-4.20
2018-03-01T15:46:09.209Z,-4.30
2018-03-01T15:48:36.764Z,-4.30
2018-03-01T15:51:04.286Z,-4.20
2018-03-01T15:53:31.852Z,-4.20
2018-03-01T15:55:59.416Z,-4.20
2018-03-01T15:58:26.968Z,-4.20
2018-03-01T16:00:54.506Z,-4.30
2018-03-01T16:03:22.832Z,-4.40
2018-03-01T16:05:50.356Z,-4.40
2018-03-01T16:08:17.917Z,-4.40
2018-03-01T16:10:45.452Z,-4.50
2018-03-01T16:13:13.745Z,-4.60
2018-03-01T16:15:41.310Z,-4.60
2018-03-01T16:18:08.852Z,-4.70
2018-03-01T16:20:37.184Z,-4.80
2018-03-01T16:23:04.710Z,-4.80
2018-03-01T16:25:32.267Z,-4.80
2018-03-01T16:27:59.787Z,-4.80
2018-03-01T16:30:27.345Z,-4.90
2018-03-01T16:32:54.878Z,-4.90
2018-03-01T16:35:22.409Z,-5.00
2018-03-01T16:37:49.959Z,-5.00
2018-03-01T16:40:17.507Z,-5.00
2018-03-01T16:42:45.808Z,-5.10
2018-03-01T16:45:13.328Z,-5.10
2018-03-01T16:47:41.633Z,-5.10
2018-03-01T16:50:09.184Z,-5.10
2018-03-01T16:52:36.727Z,-5.10
2018-03-01T16:55:05.025Z,-5.10
2018-03-01T16:57:32.564Z,-5.10
2018-03-01T17:00:00.884Z,-5.20
2018-03-01T17:02:28.423Z,-5.20
2018-03-01T17:04:55.980Z,-5.10
2018-03-01T17:07:23.528Z,-5.20
2018-03-01T17:09:51.861Z,-5.20
2018-03-01T17:12:19.426Z,-5.20
2018-03-01T17:14:46.983Z,-5.20
2018-03-01T17:17:14.540Z,-5.20
2018-03-01T17:19:42.102Z,-5.20
2018-03-01T17:22:09.656Z,-5.30
2018-03-01T17:24:37.189Z,-5.30
2018-03-01T17:27:04.765Z,-5.30
2018-03-01T17:29:32.320Z,-5.40
2018-03-01T17:31:59.885Z,-5.40
2018-03-01T17:34:27.424Z,-5.40
2018-03-01T17:36:54.979Z,-5.40
2018-03-01T17:39:22.542Z,-5.50
2018-03-01T17:41:50.100Z,-5.50
2018-03-01T17:44:17.655Z,-5.50
2018-03-01T17:46:45.216Z,-5.50
2018-03-01T17:49:12.781Z,-5.60
2018-03-01T17:51:40.322Z,-5.60
2018-03-01T17:54:07.875Z,-5.50
2018-03-01T17:56:36.172Z,-5.50
2018-03-01T17:59:03.715Z,-5.50
2018-03-01T18:01:32.032Z,-5.50
2018-03-01T18:03:59.596Z,-5.60
2018-03-01T18:06:27.149Z,-5.60
2018-03-01T18:08:54.705Z,-5.70
2018-03-01T18:11:22.247Z,-5.70
2018-03-01T18:13:49.975Z,-5.70
2018-03-01T18:16:18.309Z,-5.70
2018-03-01T18:18:46.833Z,-5.80
2018-03-01T18:21:14.404Z,-5.80
2018-03-01T18:23:42.698Z,-5.90
2018-03-01T18:26:10.248Z,-5.90
2018-03-01T18:28:38.539Z,-5.90
2018-03-01T18:31:06.099Z,-5.90
2018-03-01T18:33:33.670Z,-6.00
2018-03-01T18:36:01.203Z,-6.10
2018-03-01T18:38:28.755Z,-6.10
2018-03-01T18:40:57.079Z,-6.20
2018-03-01T18:43:24.635Z,-6.20
2018-03-01T18:45:52.167Z,-6.20
2018-03-01T18:48:19.743Z,-6.20
2018-03-01T18:50:47.308Z,-6.10
2018-03-01T18:53:14.864Z,-6.10
2018-03-01T18:55:42.422Z,-6.20
2018-03-01T18:58:09.979Z,-6.20
2018-03-01T19:00:37.537Z,-6.20
2018-03-01T19:03:05.088Z,-6.20
2018-03-01T19:05:32.641Z,-6.30
2018-03-01T19:08:00.189Z,-6.30
2018-03-01T19:10:28.521Z,-6.30
2018-03-01T19:12:56.051Z,-6.30
2018-03-01T19:15:23.589Z,-6.30
2018-03-01T19:17:51.154Z,-6.40
2018-03-01T19:20:18.716Z,-6.50
2018-03-01T19:22:46.271Z,-6.50
2018-03-01T19:25:13.823Z,-6.50
2018-03-01T19:27:42.144Z,-6.50
2018-03-01T19:30:09.694Z,-6.50
2018-03-01T19:32:37.270Z,-6.60
2018-03-01T19:35:04.809Z,-6.60
2018-03-01T19:37:32.359Z,-6.70
2018-03-01T19:39:59.906Z,-6.70
2018-03-01T19:42:27.475Z,-6.70
2018-03-01T19:44:55.034Z,-6.80
2018-03-01T19:47:22.578Z,-6.80
2018-03-01T19:49:50.166Z,-6.90
2018-03-01T19:52:17.713Z,-6.90
2018-03-01T19:54:45.260Z,-6.80
2018-03-01T19:57:12.822Z,-6.90
2018-03-01T19:59:40.393Z,-7.00
2018-03-01T20:02:07.921Z,-7.10
2018-03-01T20:04:36.249Z,-7.00
2018-03-01T20:07:03.787Z,-7.10
2018-03-01T20:09:31.338Z,-7.10
2018-03-01T20:11:58.865Z,-7.10
2018-03-01T20:14:26.389Z,-7.10
2018-03-01T20:16:53.937Z,-7.20
2018-03-01T20:19:21.497Z,-7.20
2018-03-01T20:21:49.058Z,-7.20
2018-03-01T20:24:16.636Z,-7.20
2018-03-01T20:26:44.475Z,-7.20
2018-03-01T20:29:12.018Z,-7.30
2018-03-01T20:31:39.582Z,-7.30
2018-03-01T20:34:07.101Z,-7.40
2018-03-01T20:36:34.620Z,-7.40
2018-03-01T20:39:02.188Z,-7.30
2018-03-01T20:41:29.737Z,-7.30
2018-03-01T20:43:57.288Z,-7.30
2018-03-01T20:46:24.852Z,-7.30
2018-03-01T20:48:52.417Z,-7.30
2018-03-01T20:51:19.960Z,-7.30
2018-03-01T20:53:47.532Z,-7.40
2018-03-01T20:56:15.051Z,-7.40
2018-03-01T20:58:43.375Z,-7.50
2018-03-01T21:01:10.905Z,-7.50
2018-03-01T21:03:38.457Z,-7.60
2018-03-01T21:06:06.798Z,-7.70
2018-03-01T21:08:34.346Z,-7.70
2018-03-01T21:11:01.912Z,-7.70
2018-03-01T21:13:29.445Z,-7.70
2018-03-01T21:15:56.998Z,-7.80
2018-03-01T21:18:24.527Z,-7.80
2018-03-01T21:20:52.843Z,-7.80
2018-03-01T21:23:20.397Z,-7.80
2018-03-01T21:25:47.930Z,-7.80
2018-03-01T21:28:15.480Z,-7.70
2018-03-01T21:30:43.797Z,-7.70
2018-03-01T21:33:11.347Z,-7.70
2018-03-01T21:35:38.897Z,-7.70
2018-03-01T21:38:06.431Z,-7.80
2018-03-01T21:40:34.742Z,-7.90
2018-03-01T21:43:02.297Z,-7.90
2018-03-01T21:45:29.863Z,-7.80
2018-03-01T21:47:57.449Z,-7.80
2018-03-01T21:50:25.022Z,-7.80
2018-03-01T21:52:52.567Z,-7.80
2018-03-01T21:55:20.138Z,-7.90
2018-03-01T21:57:47.688Z,-7.90
2018-03-01T22:00:15.267Z,-7.90
2018-03-01T22:02:42.808Z,-7.80
2018-03-01T22:05:12.067Z,-7.90
2018-03-01T22:07:39.613Z,-7.90
2018-03-01T22:10:07.942Z,-7.90
2018-03-01T22:12:35.482Z,-7.90
2018-03-01T22:15:03.011Z,-7.90
2018-03-01T22:17:31.328Z,-7.90
2018-03-01T22:19:58.866Z,-7.90
2018-03-01T22:22:26.427Z,-8.00
2018-03-01T22:24:53.984Z,-8.10
2018-03-01T22:27:21.541Z,-8.20
2018-03-01T22:29:49.102Z,-8.20
2018-03-01T22:32:16.672Z,-8.20
2018-03-01T22:34:44.211Z,-8.20
2018-03-01T22:37:11.780Z,-8.30
2018-03-01T22:39:39.329Z,-8.40
2018-03-01T22:42:06.854Z,-8.40
2018-03-01T22:44:34.405Z,-8.40
2018-03-01T22:47:01.957Z,-8.40
2018-03-01T22:49:29.540Z,-8.40
2018-03-01T22:51:57.853Z,-8.40
2018-03-01T22:54:25.423Z,-8.40
2018-03-01T22:56:53.032Z,-8.30
2018-03-01T22:59:20.590Z,-8.30
2018-03-01T23:01:48.898Z,-8.30
2018-03-01T23:04:16.452Z,-8.30
2018-03-01T23:06:44.769Z,-8.30
2018-03-01T23:09:12.304Z,-8.30
2018-03-01T23:11:39.855Z,-8.40
2018-03-01T23:14:07.405Z,-8.40
2018-03-01T23:16:34.968Z,-8.40
2018-03-01T23:19:02.768Z,-8.40
2018-03-01T23:21:30.343Z,-8.40
2018-03-01T23:23:57.877Z,-8.50
2018-03-01T23:26:25.408Z,-8.50
2018-03-01T23:28:53.720Z,-8.60
2018-03-01T23:31:21.270Z,-8.60
2018-03-01T23:33:48.822Z,-8.70
2018-03-01T23:36:16.368Z,-8.70
2018-03-01T23:38:43.912Z,-8.70
2018-03-01T23:41:12.212Z,-8.70
2018-03-01T23:43:39.763Z,-8.80
2018-03-01T23:46:07.314Z,-8.70
2018-03-01T23:48:34.885Z,-8.70
2018-03-01T23:51:02.428Z,-8.80
2018-03-01T23:53:30.728Z,-8.80
2018-03-01T23:55:58.270Z,-8.80
2018-03-01T23:58:26.562Z,-8.80
